Time;durP1;ratioP1;P1;durP2;ratioP2;P2;SDS_P1;SDS_P2;PMS_P1;PMS_P2;Temp;Humidity;BMP_temperature;BMP_pressure;BME280_temperature;BME280_humidity;BME280_pressure;Samples;Min_cycle;Max_cycle;Signal;HPM_P1;HPM_P2
2023/04/01 00:02:21;;;;;;;;;;;;;;;;;;4982207;28;20065;-54
2023/04/01 00:04:49;;;;;;;4.78;2.10;;;;;;;;;;4983221;28;20729;-53
2023/04/01 00:07:22;;;;;;;2.88;1.98;;;;;;;;;;4988936;28;20054;-54
2023/04/01 00:09:50;;;;;;;1.90;1.50;;;;;;;;;;4982674;28;20445;-50
2023/04/01 00:12:25;;;;;;;2.58;2.03;;;;;;;;;;4984990;28;20045;-52
2023/04/01 00:14:52;;;;;;;3.00;2.00;;;;;;;;;;4986312;28;20177;-49
2023/04/01 00:17:19;;;;;;;3.58;2.10;;;;;;;;;;4982090;28;20532;-64
2023/04/01 00:19:52;;;;;;;8.05;2.83;;;;;;;;;;4982878;28;20143;-63
2023/04/01 00:22:20;;;;;;;4.55;2.25;;;;;;;;;;4985557;28;20150;-64
2023/04/01 00:24:54;;;;;;;4.65;1.92;;;;;;;;;;4987445;28;20060;-64
2023/04/01 00:27:21;;;;;;;3.15;2.17;;;;;;;;;;4986249;28;20188;-50
2023/04/01 00:29:55;;;;;;;2.58;1.90;;;;;;;;;;4985956;28;20926;-57
2023/04/01 00:32:22;;;;;;;4.25;1.77;;;;;;;;;;4982667;28;20164;-50
2023/04/01 00:34:53;;;;;;;4.00;1.98;;;;;;;;;;4985578;28;20058;-50
2023/04/01 00:37:27;;;;;;;5.70;1.90;;;;;;;;;;4985861;28;20505;-51
2023/04/01 00:39:55;;;;;;;5.47;2.38;;;;;;;;;;4986595;28;20054;-54
2023/04/01 00:42:28;;;;;;;6.05;2.13;;;;;;;;;;4988866;28;20050;-52
2023/04/01 00:44:56;;;;;;;3.50;2.10;;;;;;;;;;4984949;28;20058;-60
2023/04/01 00:47:24;;;;;;;5.78;2.15;;;;;;;;;;4984970;28;20050;-60
2023/04/01 00:50:00;;;;;;;7.68;2.30;;;;;;;;;;4980919;28;20391;-58
2023/04/01 00:52:27;;;;;;;3.17;2.10;;;;;;;;;;4987484;28;20049;-58
2023/04/01 00:55:03;;;;;;;4.03;2.10;;;;;;;;;;4984336;28;20068;-64
2023/04/01 00:57:34;;;;;;;4.63;2.40;;;;;;;;;;4988869;28;20077;-54
2023/04/01 01:00:10;;;;;;;4.13;2.20;;;;;;;;;;4987371;28;20068;-52
2023/04/01 01:02:38;;;;;;;6.55;1.92;;;;;;;;;;4981954;28;20105;-53
2023/04/01 01:05:06;;;;;;;5.40;2.00;;;;;;;;;;4981489;28;20149;-55
2023/04/01 01:07:46;;;;;;;5.43;1.90;;;;;;;;;;4982574;28;20081;-54
2023/04/01 01:10:25;;;;;;;5.25;2.20;;;;;;;;;;4986225;28;20065;-54
2023/04/01 01:12:52;;;;;;;6.30;2.17;;;;;;;;;;4983927;28;20421;-65
2023/04/01 01:15:29;;;;;;;6.10;1.85;;;;;;;;;;4986599;28;20117;-64
2023/04/01 01:18:05;;;;;;;4.50;2.28;;;;;;;;;;4979208;28;20058;-58
2023/04/01 01:20:57;;;;;;;4.03;2.40;;;;;;;;;;4985952;28;20064;-55
2023/04/01 01:23:38;;;;;;;3.70;2.10;;;;;;;;;;4984186;28;20093;-57
2023/04/01 01:26:28;;;;;;;4.55;2.20;;;;;;;;;;4983531;28;20050;-58
2023/04/01 01:29:21;;;;;;;5.03;2.10;;;;;;;;;;4982912;28;20060;-59
2023/04/01 01:32:14;;;;;;;4.68;2.10;;;;;;;;;;4965898;28;20059;-58
2023/04/01 01:34:42;;;;;;;3.05;1.95;;;;;;;;;;4980617;28;20054;-59
2023/04/01 01:37:18;;;;;;;2.58;2.00;;;;;;;;;;4986503;28;20084;-60
2023/04/01 01:39:47;;;;;;;4.72;2.03;;;;;;;;;;4982024;28;20054;-58
2023/04/01 01:42:23;;;;;;;3.80;2.28;;;;;;;;;;4985541;28;20529;-47
2023/04/01 01:44:51;;;;;;;2.90;2.15;;;;;;;;;;4985832;28;20544;-51
2023/04/01 01:47:19;;;;;;;3.70;1.90;;;;;;;;;;4979368;28;20046;-54
2023/04/01 01:49:55;;;;;;;2.67;1.53;;;;;;;;;;4983868;28;20101;-49
2023/04/01 01:52:23;;;;;;;4.38;1.98;;;;;;;;;;4981751;28;20541;-49
2023/04/01 01:54:58;;;;;;;3.00;1.77;;;;;;;;;;4985196;28;20506;-56
2023/04/01 01:57:28;;;;;;;3.53;2.10;;;;;;;;;;4988547;28;20129;-52
2023/04/01 02:00:00;;;;;;;5.15;1.83;;;;;;;;;;4983379;28;20050;-51
2023/04/01 02:02:33;;;;;;;3.10;2.20;;;;;;;;;;4982820;28;20050;-49
2023/04/01 02:05:01;;;;;;;4.07;2.00;;;;;;;;;;4981081;28;20058;-48
2023/04/01 02:07:36;;;;;;;3.55;2.00;;;;;;;;;;4982878;28;20413;-54
2023/04/01 02:10:03;;;;;;;3.40;2.00;;;;;;;;;;4983735;28;20502;-48
2023/04/01 02:12:31;;;;;;;3.40;2.20;;;;;;;;;;4986742;28;20055;-51
2023/04/01 02:15:13;;;;;;;4.20;2.30;;;;;;;;;;4984749;28;20061;-65
2023/04/01 02:17:50;;;;;;;4.03;2.20;;;;;;;;;;4982680;28;20060;-65
2023/04/01 02:20:31;;;;;;;3.72;2.03;;;;;;;;;;4984735;28;20054;-65
2023/04/01 02:22:59;;;;;;;2.47;1.60;;;;;;;;;;4989852;28;20418;-65
2023/04/01 02:25:35;;;;;;;2.92;1.90;;;;;;;;;;4985893;28;20057;-64
2023/04/01 02:28:04;;;;;;;2.65;2.03;;;;;;;;;;4991735;28;20060;-64
2023/04/01 02:30:40;;;;;;;4.13;1.85;;;;;;;;;;4988711;28;21071;-65
2023/04/01 02:33:07;;;;;;;3.83;1.93;;;;;;;;;;4968601;28;20058;-64
2023/04/01 02:35:37;;;;;;;3.22;2.20;;;;;;;;;;4988126;28;20100;-64
2023/04/01 02:38:10;;;;;;;6.23;2.10;;;;;;;;;;4985801;28;20145;-61
2023/04/01 02:40:42;;;;;;;4.65;2.00;;;;;;;;;;4986687;28;20054;-53
2023/04/01 02:43:16;;;;;;;5.00;2.05;;;;;;;;;;4986629;28;20065;-56
2023/04/01 02:45:43;;;;;;;6.47;1.90;;;;;;;;;;4988553;28;20514;-57
2023/04/01 02:48:12;;;;;;;6.30;1.83;;;;;;;;;;4988321;28;20050;-59
2023/04/01 02:50:47;;;;;;;3.03;1.87;;;;;;;;;;4985595;28;20056;-59
2023/04/01 02:53:14;;;;;;;5.78;2.10;;;;;;;;;;4986829;28;20054;-58
2023/04/01 02:55:50;;;;;;;3.30;1.87;;;;;;;;;;4985695;28;20060;-58
2023/04/01 02:58:17;;;;;;;5.80;1.93;;;;;;;;;;4988836;28;20174;-63
2023/04/01 03:00:44;;;;;;;2.92;2.00;;;;;;;;;;4987596;28;20138;-63
2023/04/01 03:03:18;;;;;;;3.40;2.00;;;;;;;;;;4985490;28;20090;-63
2023/04/01 03:05:46;;;;;;;;;;;;;;;;;;4987987;28;20069;-63
2023/04/01 03:08:19;;;;;;;2.87;1.90;;;;;;;;;;4988329;28;19921;-62
2023/04/01 03:10:46;;;;;;;4.82;2.17;;;;;;;;;;4989022;28;20130;-46
2023/04/01 03:13:14;;;;;;;2.80;2.10;;;;;;;;;;4986005;28;20054;-52
2023/04/01 03:15:54;;;;;;;3.33;2.00;;;;;;;;;;4991535;28;20050;-47
2023/04/01 03:18:28;;;;;;;4.57;2.33;;;;;;;;;;4984537;28;20046;-45
2023/04/01 03:21:19;;;;;;;6.17;1.93;;;;;;;;;;4988523;28;20062;-46
2023/04/01 03:23:47;;;;;;;4.87;1.80;;;;;;;;;;4985758;28;20144;-45
2023/04/01 03:26:21;;;;;;;3.97;1.80;;;;;;;;;;4984880;28;20133;-63
2023/04/01 03:28:48;;;;;;;3.57;1.90;;;;;;;;;;4986924;28;20086;-63
2023/04/01 03:31:23;;;;;;;2.63;1.70;;;;;;;;;;4989602;28;20077;-64
2023/04/01 03:33:50;;;;;;;3.17;1.80;;;;;;;;;;4989840;28;20392;-64
2023/04/01 03:36:17;;;;;;;5.72;2.33;;;;;;;;;;4985518;28;20120;-63
2023/04/01 03:38:51;;;;;;;7.17;2.60;;;;;;;;;;4983991;28;20054;-49
2023/04/01 03:41:19;;;;;;;3.65;1.80;;;;;;;;;;4990896;28;20133;-53
2023/04/01 03:43:53;;;;;;;10.63;2.20;;;;;;;;;;4987194;28;20133;-51
2023/04/01 03:46:20;;;;;;;2.97;2.20;;;;;;;;;;4983747;28;20069;-57
2023/04/01 03:48:48;;;;;;;;;;;;;;;;;;4985025;28;20112;-56
2023/04/01 03:51:21;;;;;;;5.30;2.00;;;;;;;;;;4986408;28;19937;-52
2023/04/01 03:53:49;;;;;;;;;;;;;;;;;;4984062;28;20054;-50
2023/04/01 03:56:22;;;;;;;8.43;2.00;;;;;;;;;;4985521;28;20016;-51
2023/04/01 03:58:50;;;;;;;3.22;1.85;;;;;;;;;;4981536;28;20524;-51
2023/04/01 04:01:21;;;;;;;3.50;2.00;;;;;;;;;;4982174;28;20086;-47
2023/04/01 04:03:56;;;;;;;3.73;2.30;;;;;;;;;;4986776;28;20414;-47
2023/04/01 04:06:24;;;;;;;3.33;2.07;;;;;;;;;;4985602;28;20055;-50
2023/04/01 04:08:57;;;;;;;3.60;2.10;;;;;;;;;;4983128;28;20524;-60
2023/04/01 04:11:25;;;;;;;;;;;;;;;;;;4985159;28;20137;-61
2023/04/01 04:13:52;;;;;;;3.23;2.23;;;;;;;;;;4987044;28;20016;-60
2023/04/01 04:16:33;;;;;;;3.97;2.50;;;;;;;;;;4985987;28;20335;-60
2023/04/01 04:19:07;;;;;;;3.90;2.03;;;;;;;;;;4987798;28;20054;-61
2023/04/01 04:21:41;;;;;;;5.73;2.40;;;;;;;;;;4984792;28;20527;-58
2023/04/01 04:24:09;;;;;;;3.97;2.20;;;;;;;;;;4980858;28;20066;-62
2023/04/01 04:26:36;;;;;;;8.80;2.30;;;;;;;;;;4983501;28;20667;-62
2023/04/01 04:29:09;;;;;;;4.47;2.13;;;;;;;;;;4986451;28;20069;-62
2023/04/01 04:31:36;;;;;;;5.97;2.10;;;;;;;;;;4986199;28;20208;-62
2023/04/01 04:34:10;;;;;;;4.20;2.70;;;;;;;;;;4988729;28;20054;-51
2023/04/01 04:36:38;;;;;;;4.10;2.17;;;;;;;;;;4985941;28;20137;-49
2023/04/01 04:39:05;;;;;;;6.95;2.20;;;;;;;;;;4985161;28;20117;-50
2023/04/01 04:41:38;;;;;;;4.83;2.17;;;;;;;;;;4987488;28;20429;-54
2023/04/01 04:44:05;;;;;;;;;;;;;;;;;;4984235;28;20050;-52
2023/04/01 04:46:40;;;;;;;6.60;2.13;;;;;;;;;;4987353;28;20397;-47
2023/04/01 04:49:07;;;;;;;2.60;2.00;;;;;;;;;;4984810;28;20054;-48
2023/04/01 04:51:35;;;;;;;4.13;2.33;;;;;;;;;;4981484;28;20090;-53
2023/04/01 04:54:09;;;;;;;3.03;2.10;;;;;;;;;;4984020;28;20085;-64
2023/04/01 04:56:36;;;;;;;;;;;;;;;;;;4985840;28;20050;-64
2023/04/01 04:59:12;;;;;;;2.73;1.83;;;;;;;;;;4984884;28;19976;-63
2023/04/01 05:01:39;;;;;;;4.37;2.10;;;;;;;;;;4982226;28;20062;-64
2023/04/01 05:04:07;;;;;;;3.67;2.30;;;;;;;;;;4986051;28;20070;-63
2023/04/01 05:06:40;;;;;;;3.40;2.37;;;;;;;;;;4981719;28;20054;-62
2023/04/01 05:09:07;;;;;;;5.55;2.33;;;;;;;;;;4987290;28;20566;-61
2023/04/01 05:11:41;;;;;;;6.93;2.27;;;;;;;;;;4986015;28;20055;-61
2023/04/01 05:14:08;;;;;;;;;;;;;;;;;;4984722;28;20138;-61
2023/04/01 05:16:36;;;;;;;3.83;2.30;;;;;;;;;;4981434;28;19925;-61
2023/04/01 05:19:16;;;;;;;3.77;2.30;;;;;;;;;;4986299;28;20057;-45
2023/04/01 05:21:43;;;;;;;6.60;2.27;;;;;;;;;;4981469;28;20169;-48
2023/04/01 05:24:18;;;;;;;6.40;2.20;;;;;;;;;;4982310;28;20054;-62
2023/04/01 05:26:45;;;;;;;;;;;;;;;;;;4986235;28;20410;-62
2023/04/01 05:29:12;;;;;;;4.63;2.10;;;;;;;;;;4986626;28;19977;-63
2023/04/01 05:31:45;;;;;;;6.30;2.33;;;;;;;;;;4983603;28;20463;-62
2023/04/01 05:34:12;;;;;;;;;;;;;;;;;;4983190;28;20050;-62
2023/04/01 05:36:46;;;;;;;3.23;1.90;;;;;;;;;;4982970;28;19928;-62
2023/04/01 05:39:14;;;;;;;5.43;2.45;;;;;;;;;;4984555;28;20046;-62
2023/04/01 05:41:41;;;;;;;3.58;2.10;;;;;;;;;;4982439;28;20149;-62
2023/04/01 05:44:14;;;;;;;3.27;2.20;;;;;;;;;;4982144;28;20050;-63
2023/04/01 05:46:48;;;;;;;4.22;1.95;;;;;;;;;;4978724;28;20051;-63
2023/04/01 05:49:21;;;;;;;3.87;2.13;;;;;;;;;;4986985;28;20050;-54
2023/04/01 05:51:49;;;;;;;;;;;;;;;;;;4982095;28;20137;-60
2023/04/01 05:54:22;;;;;;;4.83;2.50;;;;;;;;;;4981175;28;19936;-60
2023/04/01 05:56:56;;;;;;;4.47;2.10;;;;;;;;;;4985227;28;20058;-60
2023/04/01 05:59:24;;;;;;;3.17;2.25;;;;;;;;;;4985642;28;20058;-60
2023/04/01 06:01:51;;;;;;;4.13;2.40;;;;;;;;;;4985764;28;20076;-61
2023/04/01 06:04:30;;;;;;;4.20;2.22;;;;;;;;;;4982667;28;20051;-61
2023/04/01 06:06:57;;;;;;;3.58;2.22;;;;;;;;;;4973755;28;20057;-58
2023/04/01 06:09:31;;;;;;;2.30;1.80;;;;;;;;;;4976923;28;20048;-58
2023/04/01 06:12:08;;;;;;;2.95;1.90;;;;;;;;;;4975515;28;20047;-57
2023/04/01 06:15:00;;;;;;;4.57;2.28;;;;;;;;;;4979522;28;20156;-56
2023/04/01 06:17:43;;;;;;;9.50;2.20;;;;;;;;;;4977508;28;20081;-60
2023/04/01 06:20:20;;;;;;;3.28;2.30;;;;;;;;;;4969507;28;20090;-52
2023/04/01 06:23:06;;;;;;;3.53;1.88;;;;;;;;;;4976005;28;20058;-53
2023/04/01 06:25:48;;;;;;;2.25;1.50;;;;;;;;;;4980882;28;20060;-51
2023/04/01 06:28:35;;;;;;;3.63;1.83;;;;;;;;;;4977356;28;20086;-47
2023/04/01 06:31:27;;;;;;;2.42;1.40;;;;;;;;;;4982732;28;20056;-49
2023/04/01 06:34:01;;;;;;;5.10;1.75;;;;;;;;;;4972237;28;20062;-63
2023/04/01 06:36:38;;;;;;;4.40;1.60;;;;;;;;;;4975946;28;20112;-65
2023/04/01 06:39:27;;;;;;;2.85;1.80;;;;;;;;;;4978891;28;20054;-65
2023/04/01 06:42:15;;;;;;;10.00;2.10;;;;;;;;;;4980077;28;20453;-66
2023/04/01 06:45:12;;;;;;;2.05;1.67;;;;;;;;;;4981833;28;20055;-65
2023/04/01 06:47:57;;;;;;;2.42;1.48;;;;;;;;;;4971732;28;20506;-66
2023/04/01 06:50:32;;;;;;;3.65;1.70;;;;;;;;;;4988415;28;20057;-65
2023/04/01 06:53:09;;;;;;;2.80;1.58;;;;;;;;;;4990413;28;20046;-61
2023/04/01 06:55:46;;;;;;;4.35;1.70;;;;;;;;;;4983988;28;20138;-63
2023/04/01 06:58:22;;;;;;;2.50;1.55;;;;;;;;;;4982693;28;20077;-64
2023/04/01 07:01:01;;;;;;;2.42;1.45;;;;;;;;;;4983658;28;20845;-63
2023/04/01 07:03:41;;;;;;;1.55;1.35;;;;;;;;;;4987453;28;20713;-64
2023/04/01 07:06:29;;;;;;;3.05;1.60;;;;;;;;;;4988686;28;20058;-63
2023/04/01 07:09:00;;;;;;;4.05;1.80;;;;;;;;;;4987815;28;20861;-63
2023/04/01 07:11:35;;;;;;;3.23;1.50;;;;;;;;;;4987640;28;20097;-51
2023/04/01 07:14:04;;;;;;;3.80;1.50;;;;;;;;;;4987000;28;20140;-61
2023/04/01 07:16:36;;;;;;;3.67;1.65;;;;;;;;;;4987592;28;20168;-61
2023/04/01 07:19:33;;;;;;;4.38;1.48;;;;;;;;;;4984163;28;20054;-61
2023/04/01 07:22:19;;;;;;;3.70;1.45;;;;;;;;;;4981206;28;20058;-61
2023/04/01 07:24:54;;;;;;;2.22;1.70;;;;;;;;;;4982073;28;20076;-61
2023/04/01 07:27:21;;;;;;;4.15;1.80;;;;;;;;;;4983748;28;20142;-61
2023/04/01 07:29:56;;;;;;;1.98;1.40;;;;;;;;;;4983547;28;20149;-53
2023/04/01 07:32:35;;;;;;;2.15;1.65;;;;;;;;;;4981455;28;20588;-54
2023/04/01 07:35:31;;;;;;;3.50;1.65;;;;;;;;;;4989626;28;20513;-50
2023/04/01 07:37:58;;;;;;;1.75;1.33;;;;;;;;;;4988932;28;20058;-49
2023/04/01 07:40:39;;;;;;;3.30;1.45;;;;;;;;;;4979975;28;20057;-48
2023/04/01 07:43:06;;;;;;;3.05;1.33;;;;;;;;;;4968789;28;20433;-50
2023/04/01 07:46:16;;;;;;;3.83;1.70;;;;;;;;;;4983735;28;20051;-55
2023/04/01 07:48:52;;;;;;;3.38;1.70;;;;;;;;;;4942770;28;20055;-68
2023/04/01 07:51:27;;;;;;;1.85;1.60;;;;;;;;;;4986670;28;20516;-50
2023/04/01 07:53:54;;;;;;;2.35;1.60;;;;;;;;;;4988970;28;20421;-48
2023/04/01 07:56:24;;;;;;;3.25;1.50;;;;;;;;;;4990700;28;20822;-46
2023/04/01 07:59:10;;;;;;;2.55;1.55;;;;;;;;;;4984566;28;20568;-47
2023/04/01 08:01:59;;;;;;;3.53;1.48;;;;;;;;;;4985223;28;20105;-46
2023/04/01 08:04:45;;;;;;;1.38;1.27;;;;;;;;;;4988318;28;20047;-49
2023/04/01 08:07:30;;;;;;;2.70;1.38;;;;;;;;;;4987350;28;20054;-69
2023/04/01 08:10:00;;;;;;;3.85;1.55;;;;;;;;;;4987550;28;20064;-69
2023/04/01 08:12:39;;;;;;;5.25;1.65;;;;;;;;;;4986912;28;20153;-69
2023/04/01 08:15:06;;;;;;;2.58;1.65;;;;;;;;;;4985939;28;20621;-69
2023/04/01 08:18:02;;;;;;;2.05;1.40;;;;;;;;;;4984639;28;20054;-59
2023/04/01 08:20:48;;;;;;;2.70;1.58;;;;;;;;;;4987737;28;20528;-52
2023/04/01 08:23:37;;;;;;;2.20;1.20;;;;;;;;;;4985512;28;20046;-52
2023/04/01 08:26:07;;;;;;;2.20;1.30;;;;;;;;;;4991969;28;20801;-47
2023/04/01 08:29:00;;;;;;;2.15;1.45;;;;;;;;;;4987622;28;20056;-51
2023/04/01 08:31:46;;;;;;;2.20;1.50;;;;;;;;;;4987348;28;20532;-50
2023/04/01 08:34:28;;;;;;;2.28;1.58;;;;;;;;;;4987176;28;20061;-70
2023/04/01 08:37:17;;;;;;;4.93;1.42;;;;;;;;;;4986080;28;20064;-50
2023/04/01 08:40:02;;;;;;;1.80;1.23;;;;;;;;;;4977728;28;20527;-52
2023/04/01 08:42:42;;;;;;;2.40;1.55;;;;;;;;;;4988256;28;20046;-53
2023/04/01 08:45:28;;;;;;;2.03;1.30;;;;;;;;;;4985223;28;20498;-53
2023/04/01 08:48:09;;;;;;;3.50;1.48;;;;;;;;;;4986235;28;20058;-55
2023/04/01 08:50:42;;;;;;;4.72;1.60;;;;;;;;;;4984633;28;20520;-50
2023/04/01 08:53:16;;;;;;;1.92;1.33;;;;;;;;;;4989979;28;20052;-64
2023/04/01 08:56:10;;;;;;;2.60;1.40;;;;;;;;;;4990670;28;20529;-63
2023/04/01 08:59:04;;;;;;;2.65;1.30;;;;;;;;;;4977930;28;20502;-63
2023/04/01 09:01:48;;;;;;;3.38;1.45;;;;;;;;;;4954158;28;20104;-63
2023/04/01 09:04:25;;;;;;;1.98;1.40;;;;;;;;;;4987132;28;20057;-54
2023/04/01 09:07:06;;;;;;;1.25;1.02;;;;;;;;;;4985196;28;20054;-62
2023/04/01 09:09:39;;;;;;;4.10;1.30;;;;;;;;;;4975545;28;20050;-62
2023/04/01 09:12:18;;;;;;;3.50;1.38;;;;;;;;;;4974364;28;20069;-63
2023/04/01 09:15:02;;;;;;;2.92;1.15;;;;;;;;;;4979376;28;20426;-63
2023/04/01 09:18:01;;;;;;;1.88;1.17;;;;;;;;;;4985511;28;20068;-63
2023/04/01 09:20:44;;;;;;;1.98;1.23;;;;;;;;;;4976812;28;20042;-63
2023/04/01 09:23:28;;;;;;;2.47;1.38;;;;;;;;;;4977104;28;20054;-51
2023/04/01 09:26:10;;;;;;;1.35;0.82;;;;;;;;;;4987119;28;20062;-62
2023/04/01 09:29:03;;;;;;;2.75;1.38;;;;;;;;;;4984087;28;20084;-62
2023/04/01 09:31:38;;;;;;;2.08;1.25;;;;;;;;;;4990866;28;20046;-61
2023/04/01 09:34:08;;;;;;;2.60;1.58;;;;;;;;;;4990322;28;20049;-61
2023/04/01 09:37:04;;;;;;;3.15;1.10;;;;;;;;;;4983806;28;20053;-62
2023/04/01 09:39:36;;;;;;;1.65;1.20;;;;;;;;;;4980549;28;20759;-55
2023/04/01 09:42:14;;;;;;;5.80;1.50;;;;;;;;;;4979350;28;20140;-64
2023/04/01 09:44:53;;;;;;;2.50;1.40;;;;;;;;;;4982194;28;20058;-56
2023/04/01 09:48:06;;;;;;;2.75;1.27;;;;;;;;;;4988610;28;20054;-57
2023/04/01 09:50:37;;;;;;;2.65;1.15;;;;;;;;;;4947709;28;20843;-55
2023/04/01 09:53:13;;;;;;;5.38;1.48;;;;;;;;;;4952970;28;20082;-57
2023/04/01 09:55:45;;;;;;;3.10;1.20;;;;;;;;;;4970855;28;20069;-57
2023/04/01 09:58:23;;;;;;;2.92;1.38;;;;;;;;;;4976588;28;20497;-74
2023/04/01 10:00:53;;;;;;;1.27;1.08;;;;;;;;;;4978835;28;20065;-75
2023/04/01 10:03:36;;;;;;;1.95;1.25;;;;;;;;;;4974797;28;20541;-74
2023/04/01 10:06:16;;;;;;;4.28;1.33;;;;;;;;;;4986757;28;20137;-74
2023/04/01 10:09:08;;;;;;;2.13;1.33;;;;;;;;;;4983961;28;20989;-57
2023/04/01 10:11:50;;;;;;;4.15;1.23;;;;;;;;;;4965045;28;20083;-56
2023/04/01 10:14:33;;;;;;;2.63;1.27;;;;;;;;;;4977100;28;20141;-56
2023/04/01 10:17:29;;;;;;;2.55;1.27;;;;;;;;;;4984904;28;20069;-58
2023/04/01 10:20:25;;;;;;;2.22;1.17;;;;;;;;;;4985882;28;20516;-57
2023/04/01 10:23:07;;;;;;;1.58;1.20;;;;;;;;;;4990074;28;20425;-58
2023/04/01 10:25:42;;;;;;;2.58;0.95;;;;;;;;;;4986770;28;20064;-55
2023/04/01 10:28:27;;;;;;;2.30;1.65;;;;;;;;;;4987974;28;20100;-54
2023/04/01 10:31:16;;;;;;;3.28;1.10;;;;;;;;;;4984632;28;20655;-58
2023/04/01 10:33:56;;;;;;;1.48;1.08;;;;;;;;;;4981712;28;20053;-55
2023/04/01 10:36:36;;;;;;;2.50;1.08;;;;;;;;;;4981097;28;20173;-59
2023/04/01 10:39:22;;;;;;;5.50;1.30;;;;;;;;;;4986404;28;20060;-58
2023/04/01 10:42:04;;;;;;;3.95;1.30;;;;;;;;;;4992053;28;20800;-58
2023/04/01 10:44:31;;;;;;;1.23;1.00;;;;;;;;;;4986677;28;20053;-59
2023/04/01 10:47:26;;;;;;;1.95;1.20;;;;;;;;;;4976420;28;20058;-59
2023/04/01 10:50:13;;;;;;;2.63;0.90;;;;;;;;;;4988285;28;20054;-58
2023/04/01 10:52:59;;;;;;;3.45;1.40;;;;;;;;;;4984860;28;21018;-58
2023/04/01 10:55:45;;;;;;;4.82;1.45;;;;;;;;;;4987679;28;20129;-62
2023/04/01 10:58:35;;;;;;;4.05;1.20;;;;;;;;;;4984132;28;20129;-55
2023/04/01 11:01:28;;;;;;;4.13;1.50;;;;;;;;;;4988087;28;20058;-54
2023/04/01 11:04:29;;;;;;;3.03;1.35;;;;;;;;;;4982565;28;20059;-55
2023/04/01 11:07:18;;;;;;;3.03;1.20;;;;;;;;;;4986821;28;20053;-55
2023/04/01 11:10:05;;;;;;;1.50;1.08;;;;;;;;;;4989117;28;20128;-50
2023/04/01 11:12:38;;;;;;;1.60;1.10;;;;;;;;;;4984770;28;20055;-52
2023/04/01 11:15:22;;;;;;;6.47;1.83;;;;;;;;;;4988278;28;20474;-63
2023/04/01 11:17:56;;;;;;;2.75;1.40;;;;;;;;;;4989961;28;20057;-62
2023/04/01 11:20:48;;;;;;;1.83;1.20;;;;;;;;;;4988162;28;20058;-63
2023/04/01 11:23:34;;;;;;;2.38;1.30;;;;;;;;;;4988819;28;20056;-58
2023/04/01 11:26:13;;;;;;;2.13;1.08;;;;;;;;;;4994392;28;20545;-66
2023/04/01 11:29:00;;;;;;;5.22;1.20;;;;;;;;;;4988106;28;20059;-50
2023/04/01 11:31:34;;;;;;;2.50;1.13;;;;;;;;;;4984905;28;20189;-52
2023/04/01 11:34:01;;;;;;;;;;;;;;;;;;4989170;28;20462;-56
2023/04/01 11:36:35;;;;;;;1.48;0.90;;;;;;;;;;4985161;28;19932;-54
2023/04/01 11:39:20;;;;;;;1.77;1.20;;;;;;;;;;4986033;28;20773;-55
2023/04/01 11:41:53;;;;;;;2.63;1.17;;;;;;;;;;4980461;28;20058;-63
2023/04/01 11:44:29;;;;;;;1.30;0.90;;;;;;;;;;4985595;28;20050;-63
2023/04/01 11:47:15;;;;;;;4.57;1.40;;;;;;;;;;4985999;28;20060;-63
2023/04/01 11:49:59;;;;;;;2.33;0.88;;;;;;;;;;4985306;28;20125;-62
2023/04/01 11:52:28;;;;;;;2.47;1.35;;;;;;;;;;4987679;28;20108;-60
2023/04/01 11:55:21;;;;;;;2.13;1.00;;;;;;;;;;4985245;28;20479;-60
2023/04/01 11:57:55;;;;;;;3.63;1.10;;;;;;;;;;4985998;28;20778;-62
2023/04/01 12:00:48;;;;;;;3.00;0.98;;;;;;;;;;4987254;28;20050;-62
2023/04/01 12:03:15;;;;;;;1.90;1.23;;;;;;;;;;4980082;28;20529;-62
2023/04/01 12:06:08;;;;;;;1.38;0.90;;;;;;;;;;4983158;28;20113;-62
2023/04/01 12:08:36;;;;;;;2.83;1.50;;;;;;;;;;4989559;28;20097;-62
2023/04/01 12:11:17;;;;;;;1.50;1.15;;;;;;;;;;4986978;28;20406;-58
2023/04/01 12:14:03;;;;;;;2.92;1.30;;;;;;;;;;4983438;28;20047;-57
2023/04/01 12:16:40;;;;;;;3.38;0.90;;;;;;;;;;4986755;28;20058;-58
2023/04/01 12:19:13;;;;;;;5.88;2.00;;;;;;;;;;4959458;28;20122;-58
2023/04/01 12:21:59;;;;;;;1.92;1.10;;;;;;;;;;4949173;28;20936;-56
2023/04/01 12:24:49;;;;;;;2.47;1.23;;;;;;;;;;4945290;28;20063;-61
2023/04/01 12:27:33;;;;;;;1.95;1.02;;;;;;;;;;4940397;28;20044;-62
2023/04/01 12:30:10;;;;;;;1.73;1.30;;;;;;;;;;4947413;28;20134;-62
2023/04/01 12:33:11;;;;;;;1.77;1.23;;;;;;;;;;4946887;28;20102;-62
2023/04/01 12:35:55;;;;;;;4.38;1.20;;;;;;;;;;4944637;28;20053;-61
2023/04/01 12:38:42;;;;;;;2.70;1.23;;;;;;;;;;4945085;28;20054;-62
2023/04/01 12:41:18;;;;;;;1.73;1.30;;;;;;;;;;4938425;28;20086;-62
2023/04/01 12:44:06;;;;;;;3.53;1.23;;;;;;;;;;4942789;28;20061;-58
2023/04/01 12:46:50;;;;;;;2.35;1.30;;;;;;;;;;4946300;28;20066;-59
2023/04/01 12:49:26;;;;;;;2.78;1.38;;;;;;;;;;4941341;28;20059;-55
2023/04/01 12:51:59;;;;;;;2.22;1.17;;;;;;;;;;4944268;28;20063;-55
2023/04/01 12:54:45;;;;;;;1.92;1.35;;;;;;;;;;4945148;28;20055;-54
2023/04/01 12:57:42;;;;;;;4.65;1.52;;;;;;;;;;4946766;28;20051;-53
2023/04/01 13:00:33;;;;;;;5.35;2.00;;;;;;;;;;4912131;28;20486;-55
2023/04/01 13:03:32;;;;;;;3.95;1.45;;;;;;;;;;4940273;28;20105;-54
2023/04/01 13:06:03;;;;;;;4.40;1.20;;;;;;;;;;4942441;28;20059;-51
2023/04/01 13:08:55;;;;;;;2.67;1.20;;;;;;;;;;4943073;28;20511;-58
2023/04/01 13:11:40;;;;;;;3.05;1.30;;;;;;;;;;4941467;28;20133;-57
2023/04/01 13:14:16;;;;;;;1.23;0.80;;;;;;;;;;4939168;28;20057;-57
2023/04/01 13:17:03;;;;;;;7.95;1.40;;;;;;;;;;4947718;28;20057;-52
2023/04/01 13:19:51;;;;;;;1.65;0.82;;;;;;;;;;4939288;28;20167;-56
2023/04/01 13:22:46;;;;;;;5.57;1.20;;;;;;;;;;4945517;28;20415;-56
2023/04/01 13:25:37;;;;;;;4.13;1.40;;;;;;;;;;4948876;28;20051;-56
2023/04/01 13:28:13;;;;;;;3.08;1.20;;;;;;;;;;4944573;28;20063;-57
2023/04/01 13:31:01;;;;;;;2.38;1.05;;;;;;;;;;4946521;28;20086;-56
2023/04/01 13:33:29;;;;;;;6.22;1.45;;;;;;;;;;4942493;28;20063;-57
2023/04/01 13:36:15;;;;;;;2.45;0.98;;;;;;;;;;4947370;28;20059;-60
2023/04/01 13:38:45;;;;;;;1.33;1.10;;;;;;;;;;4947492;28;20055;-58
2023/04/01 13:41:20;;;;;;;5.07;1.63;;;;;;;;;;4945553;28;20134;-58
2023/04/01 13:43:47;;;;;;;;;;;;;;;;;;4942795;28;20826;-57
2023/04/01 13:46:21;;;;;;;4.78;1.30;;;;;;;;;;4945772;28;19926;-54
2023/04/01 13:49:12;;;;;;;2.92;0.77;;;;;;;;;;4947235;28;20051;-58
2023/04/01 13:51:39;;;;;;;1.67;0.82;;;;;;;;;;4941351;28;20054;-59
2023/04/01 13:54:15;;;;;;;2.20;1.02;;;;;;;;;;4945012;28;20126;-58
2023/04/01 13:56:52;;;;;;;3.03;1.35;;;;;;;;;;4946305;28;20475;-57
2023/04/01 13:59:36;;;;;;;1.60;0.88;;;;;;;;;;4944676;28;20051;-55
2023/04/01 14:02:03;;;;;;;1.83;0.93;;;;;;;;;;4940348;28;20173;-58
2023/04/01 14:05:00;;;;;;;1.23;1.05;;;;;;;;;;4942716;28;20055;-67
2023/04/01 14:07:46;;;;;;;3.63;1.00;;;;;;;;;;4933120;28;20065;-57
2023/04/01 14:10:37;;;;;;;2.22;0.90;;;;;;;;;;4944044;28;20055;-58
2023/04/01 14:13:30;;;;;;;1.95;0.80;;;;;;;;;;4945956;28;20059;-57
2023/04/01 14:16:23;;;;;;;6.28;1.30;;;;;;;;;;4932319;28;20061;-58
2023/04/01 14:19:16;;;;;;;2.78;1.10;;;;;;;;;;4974608;28;20069;-58
2023/04/01 14:22:02;;;;;;;4.18;0.95;;;;;;;;;;4984328;28;20055;-59
2023/04/01 14:24:46;;;;;;;2.05;1.20;;;;;;;;;;4987042;28;21955;-67
2023/04/01 14:27:28;;;;;;;3.53;1.00;;;;;;;;;;4985282;28;20050;-68
2023/04/01 14:30:01;;;;;;;1.52;0.95;;;;;;;;;;4986027;28;20133;-67
2023/04/01 14:32:44;;;;;;;3.65;1.27;;;;;;;;;;4979702;28;20062;-60
2023/04/01 14:35:28;;;;;;;1.48;1.02;;;;;;;;;;4980465;28;20429;-56
2023/04/01 14:38:24;;;;;;;2.70;1.10;;;;;;;;;;4983013;28;20060;-57
2023/04/01 14:41:01;;;;;;;4.78;1.00;;;;;;;;;;4981453;28;20305;-58
2023/04/01 14:43:53;;;;;;;5.72;1.20;;;;;;;;;;4984592;28;20060;-57
2023/04/01 14:46:27;;;;;;;1.27;0.70;;;;;;;;;;4983759;28;20444;-58
2023/04/01 14:49:14;;;;;;;1.40;1.02;;;;;;;;;;4967738;28;20061;-54
2023/04/01 14:51:49;;;;;;;1.58;0.95;;;;;;;;;;4985179;28;20388;-62
2023/04/01 14:54:37;;;;;;;1.92;0.98;;;;;;;;;;4989359;28;20395;-57
2023/04/01 14:57:16;;;;;;;3.63;1.20;;;;;;;;;;4986964;28;20055;-55
2023/04/01 14:59:48;;;;;;;1.73;0.88;;;;;;;;;;4982588;28;20055;-54
2023/04/01 15:02:34;;;;;;;2.72;0.80;;;;;;;;;;4984003;28;20054;-58
2023/04/01 15:05:14;;;;;;;2.33;1.10;;;;;;;;;;4983419;28;20540;-56
2023/04/01 15:08:27;;;;;;;3.05;1.10;;;;;;;;;;4985628;28;20486;-55
2023/04/01 15:11:00;;;;;;;2.08;1.08;;;;;;;;;;4937935;28;20061;-57
2023/04/01 15:13:38;;;;;;;2.70;0.95;;;;;;;;;;4938148;28;20063;-57
2023/04/01 15:16:17;;;;;;;1.00;0.73;;;;;;;;;;4966721;28;20133;-59
2023/04/01 15:19:09;;;;;;;3.78;0.88;;;;;;;;;;4985347;28;20058;-57
2023/04/01 15:21:55;;;;;;;2.45;1.15;;;;;;;;;;4983031;28;20049;-61
2023/04/01 15:24:45;;;;;;;2.75;1.17;;;;;;;;;;4967633;28;20077;-62
2023/04/01 15:27:17;;;;;;;2.60;1.00;;;;;;;;;;4983004;28;20070;-62
2023/04/01 15:30:04;;;;;;;1.10;0.70;;;;;;;;;;4985292;28;20077;-62
2023/04/01 15:32:38;;;;;;;1.02;0.70;;;;;;;;;;4970163;28;20725;-62
2023/04/01 15:35:30;;;;;;;2.83;0.90;;;;;;;;;;4985735;28;20502;-62
2023/04/01 15:38:07;;;;;;;1.90;1.00;;;;;;;;;;4983900;28;20332;-59
2023/04/01 15:40:48;;;;;;;2.10;0.80;;;;;;;;;;4986451;28;20833;-59
2023/04/01 15:43:25;;;;;;;2.25;1.08;;;;;;;;;;4985440;28;20055;-58
2023/04/01 15:46:10;;;;;;;1.50;1.13;;;;;;;;;;4984477;28;20050;-56
2023/04/01 15:48:55;;;;;;;4.55;1.10;;;;;;;;;;4984513;28;20047;-61
2023/04/01 15:51:39;;;;;;;2.00;1.08;;;;;;;;;;4986415;28;20065;-66
2023/04/01 15:54:18;;;;;;;2.80;1.20;;;;;;;;;;4987436;28;20145;-66